New Paltz, NY (12561)

4:56 AM EST on January 28, 2015 (GMT -0500)
Petepic - New Paltz | Change Station
CLOSE
Current Station
Personal Weather Station
Location: New Paltz, NY
Elevation: 364 ft
Nearby Weather Stations

Elev 364 ft 41.73 °N, 74.06 °W | Updated 9 minutes ago

Clear
Clear
2.3 °F
Feels Like 2 °F
N
0.0
Wind Variable Wind from WSW

Today
High -- | Low -- °F
--% Chance of Precip.
Yesterday
High -- | Low -- °F
Precip. -- in
7:12 AM 5:06 PM
Waxing Gibbous, 63% visible
Pressure 29.91 in
Visibility 10.0 miles
Clouds Few 5000 ft
Windchill 2 °F
Dew Point -0 °F
Humidity 89%
Rainfall 0.00 in
Snow Depth Not available.
UV 0 out of 12
Pollen .10 out of 12
Air Quality Not available.
Flu Activity Not available.
METAR KPOU 280853Z 00000KT 10SM FEW050 M15/M17 A2990 RMK AO2 SLP126 T11501172 53019

More Conditions Fewer Conditions

Pressure 29.91 in
Visibility 10.0 miles
Clouds Few 5000 ft
Windchill 2 °F
Dew Point -0 °F
Humidity 89%
Rainfall 0.00 in
Snow Depth Not available.
UV 0 out of 12
Pollen .10 out of 12
Air Quality Not available.
Flu Activity Not available.
METAR KPOU 280853Z 00000KT 10SM FEW050 M15/M17 A2990 RMK AO2 SLP126 T11501172 53019

More Conditions Fewer Conditions

10-Day Weather Forecast

Almanac

Astronomy

Jan. 28, 2015 Rise Set
Actual Time
Civil Twilight
Nautical Twilight
Astronomical Twilight
Moon
Length of Visible Light
Length of Day
Tomorrow will be .
, % of the Moon is Illuminated

Today's Extremes

State Highs State Lows

Community

WunderPhotos

Upload Photos

1,791,120 photos uploaded!

WunderBlogs® & News

Nearby

Air Quality

  Air Quality AQ Index Pollutant
Not available.

Snow Depth

Station Depth Elevation

Earthquake Activity

City Distance Mag. Time & Date
Minimum magnitude displayed is 2.5.

Coastal Water Temperatures

Place Temperature

Nearby Weather Stations